createdAt,value
2023-01-10T00:01:53.374Z,-0.52
2023-01-10T00:04:20.393Z,-0.52
2023-01-10T00:06:47.318Z,-0.51
2023-01-10T00:09:14.208Z,-0.50
2023-01-10T00:11:59.763Z,-0.51
2023-01-10T00:14:29.021Z,-0.52
2023-01-10T00:16:56.925Z,-0.52
2023-01-10T00:19:23.824Z,-0.51
2023-01-10T00:21:54.663Z,-0.51
2023-01-10T00:24:22.562Z,-0.50
2023-01-10T00:26:54.489Z,-0.47
2023-01-10T00:29:23.518Z,-0.45
2023-01-10T00:31:50.466Z,-0.45
2023-01-10T00:34:17.313Z,-0.42
2023-01-10T00:36:45.738Z,-0.41
2023-01-10T00:39:12.828Z,-0.38
2023-01-10T00:41:58.998Z,-0.37
2023-01-10T00:44:26.284Z,-0.37
2023-01-10T00:46:53.860Z,-0.37
2023-01-10T00:49:20.840Z,-0.38
2023-01-10T00:51:47.970Z,-0.39
2023-01-10T00:54:15.331Z,-0.42
2023-01-10T00:56:42.395Z,-0.44
2023-01-10T00:59:09.614Z,-0.43
2023-01-10T01:01:36.599Z,-0.45
2023-01-10T01:04:03.677Z,-0.47
2023-01-10T01:06:31.024Z,-0.49
2023-01-10T01:08:57.982Z,-0.53
2023-01-10T01:11:25.452Z,-0.51
2023-01-10T01:13:52.513Z,-0.51
2023-01-10T01:16:19.713Z,-0.51
2023-01-10T01:18:47.027Z,-0.51
2023-01-10T01:21:13.980Z,-0.54
2023-01-10T01:23:40.930Z,-0.56
2023-01-10T01:26:08.304Z,-0.59
2023-01-10T01:28:35.284Z,-0.58
2023-01-10T01:31:08.473Z,-0.61
2023-01-10T01:33:36.026Z,-0.60
2023-01-10T01:36:03.177Z,-0.59
2023-01-10T01:38:30.063Z,-0.60
2023-01-10T01:40:57.092Z,-0.62
2023-01-10T01:43:28.662Z,-0.66
2023-01-10T01:45:55.821Z,-0.65
2023-01-10T01:48:49.373Z,-0.67
2023-01-10T01:51:21.023Z,-0.68
2023-01-10T01:53:59.866Z,-0.75
2023-01-10T01:56:37.289Z,-0.75
2023-01-10T01:59:08.295Z,-0.74
2023-01-10T02:01:35.874Z,-0.73
2023-01-10T02:04:14.102Z,-0.72
2023-01-10T02:06:41.052Z,-0.71
2023-01-10T02:09:22.551Z,-0.75
2023-01-10T02:11:49.498Z,-0.77
2023-01-10T02:14:16.561Z,-0.80
2023-01-10T02:16:43.488Z,-0.80
2023-01-10T02:19:29.470Z,-0.84
2023-01-10T02:22:16.570Z,-0.86
2023-01-10T02:24:58.817Z,-0.83
2023-01-10T02:27:27.519Z,-0.82
2023-01-10T02:30:05.162Z,-0.80
2023-01-10T02:33:00.576Z,-0.79
2023-01-10T02:35:43.374Z,-0.78
2023-01-10T02:38:39.142Z,-0.84
2023-01-10T02:41:09.058Z,-0.85
2023-01-10T02:43:39.388Z,-0.86
2023-01-10T02:46:12.386Z,-0.87
2023-01-10T02:48:39.281Z,-0.93
2023-01-10T02:51:25.386Z,-0.92
2023-01-10T02:53:58.779Z,-0.92
2023-01-10T02:56:38.720Z,-0.90
2023-01-10T02:59:08.690Z,-0.87
2023-01-10T03:01:56.715Z,-0.84
2023-01-10T03:04:43.393Z,-0.82
2023-01-10T03:07:33.294Z,-0.83
2023-01-10T03:10:27.784Z,-0.82
2023-01-10T03:12:59.089Z,-0.83
2023-01-10T03:15:28.609Z,-0.87
2023-01-10T03:17:57.295Z,-0.83
2023-01-10T03:20:24.350Z,-0.81
2023-01-10T03:22:52.029Z,-0.80
2023-01-10T03:25:20.207Z,-0.83
2023-01-10T03:28:06.686Z,-0.83
2023-01-10T03:30:47.762Z,-0.80
2023-01-10T03:33:16.858Z,-0.79
2023-01-10T03:36:23.180Z,-0.78
2023-01-10T03:38:57.028Z,-0.77
2023-01-10T03:41:42.395Z,-0.74
2023-01-10T03:44:37.929Z,-0.71
2023-01-10T03:47:41.287Z,-0.73
2023-01-10T03:50:09.289Z,-0.73
2023-01-10T03:52:36.592Z,-0.77
2023-01-10T03:55:05.509Z,-0.82
2023-01-10T03:57:32.814Z,-0.87
2023-01-10T04:00:00.014Z,-0.92
2023-01-10T04:02:28.396Z,-0.96
2023-01-10T04:04:55.733Z,-0.98
2023-01-10T04:07:23.028Z,-1.00
2023-01-10T04:09:49.986Z,-1.04
2023-01-10T04:12:17.414Z,-1.07
2023-01-10T04:14:47.028Z,-1.07
2023-01-10T04:17:14.722Z,-1.10
2023-01-10T04:19:42.095Z,-1.12
2023-01-10T04:22:12.305Z,-1.16
2023-01-10T04:24:39.353Z,-1.19
2023-01-10T04:27:06.331Z,-1.23
2023-01-10T04:29:33.246Z,-1.25
2023-01-10T04:32:01.159Z,-1.26
2023-01-10T04:34:28.288Z,-1.30
2023-01-10T04:36:55.345Z,-1.32
2023-01-10T04:39:22.299Z,-1.33
2023-01-10T04:41:49.765Z,-1.32
2023-01-10T04:44:16.721Z,-1.32
2023-01-10T04:46:43.595Z,-1.33
2023-01-10T04:49:10.961Z,-1.36
2023-01-10T04:51:37.854Z,-1.40
2023-01-10T04:54:04.843Z,-1.42
2023-01-10T04:56:31.793Z,-1.46
2023-01-10T04:58:58.627Z,-1.48
2023-01-10T05:01:26.127Z,-1.49
2023-01-10T05:03:56.458Z,-1.49
2023-01-10T05:06:24.033Z,-1.50
2023-01-10T05:08:51.301Z,-1.53
2023-01-10T05:11:18.230Z,-1.57
2023-01-10T05:13:47.735Z,-1.63
2023-01-10T05:16:15.159Z,-1.68
2023-01-10T05:18:42.300Z,-1.71
2023-01-10T05:21:10.946Z,-1.73
2023-01-10T05:23:38.116Z,-1.73
2023-01-10T05:26:10.082Z,-1.77
2023-01-10T05:28:37.542Z,-1.80
2023-01-10T05:31:06.645Z,-1.86
2023-01-10T05:33:33.575Z,-1.94
2023-01-10T05:36:04.687Z,-2.03
2023-01-10T05:38:31.950Z,-2.15
2023-01-10T05:40:59.277Z,-2.24
2023-01-10T05:43:26.524Z,-2.31
2023-01-10T05:45:53.461Z,-2.38
2023-01-10T05:48:20.531Z,-2.46
2023-01-10T05:50:49.015Z,-2.52
2023-01-10T05:53:17.507Z,-2.56
2023-01-10T05:55:44.462Z,-2.63
2023-01-10T05:58:11.721Z,-2.72
2023-01-10T06:00:40.065Z,-2.76
2023-01-10T06:03:07.021Z,-2.79
2023-01-10T06:05:34.017Z,-2.83
2023-01-10T06:08:00.917Z,-2.88
2023-01-10T06:10:27.818Z,-2.94
2023-01-10T06:12:54.882Z,-2.99
2023-01-10T06:15:21.819Z,-3.04
2023-01-10T06:17:48.716Z,-3.04
2023-01-10T06:20:16.035Z,-3.02
2023-01-10T06:22:43.260Z,-3.02
2023-01-10T06:25:10.900Z,-3.05
2023-01-10T06:27:41.825Z,-3.10
2023-01-10T06:30:13.280Z,-3.14
2023-01-10T06:32:41.145Z,-3.13
2023-01-10T06:35:08.689Z,-3.14
2023-01-10T06:37:35.591Z,-3.23
2023-01-10T06:40:02.968Z,-3.27
2023-01-10T06:42:30.159Z,-3.30
2023-01-10T06:44:57.297Z,-3.35
2023-01-10T06:47:24.276Z,-3.43
2023-01-10T06:49:54.098Z,-3.49
2023-01-10T06:52:21.416Z,-3.54
2023-01-10T06:54:49.385Z,-3.55
2023-01-10T06:57:16.250Z,-3.56
2023-01-10T06:59:43.147Z,-3.56
2023-01-10T07:02:11.673Z,-3.58
2023-01-10T07:04:42.421Z,-3.66
2023-01-10T07:07:09.401Z,-3.66
2023-01-10T07:09:36.301Z,-3.62
2023-01-10T07:12:03.350Z,-3.61
2023-01-10T07:14:30.376Z,-3.62
2023-01-10T07:16:57.539Z,-3.64
2023-01-10T07:19:24.428Z,-3.66
2023-01-10T07:21:51.527Z,-3.63
2023-01-10T07:24:18.953Z,-3.60
2023-01-10T07:26:45.835Z,-3.55
2023-01-10T07:29:12.688Z,-3.50
2023-01-10T07:31:39.661Z,-3.50
2023-01-10T07:34:06.590Z,-3.54
2023-01-10T07:36:37.388Z,-3.56
2023-01-10T07:39:07.656Z,-3.52
2023-01-10T07:41:34.817Z,-3.53
2023-01-10T07:44:03.220Z,-3.53
2023-01-10T07:46:30.297Z,-3.53
2023-01-10T07:48:57.265Z,-3.52
2023-01-10T07:51:24.262Z,-3.47
2023-01-10T07:53:51.217Z,-3.37
2023-01-10T07:56:18.269Z,-3.34
2023-01-10T07:58:46.664Z,-3.33
2023-01-10T08:01:13.757Z,-3.29
2023-01-10T08:03:41.102Z,-3.28
2023-01-10T08:06:11.234Z,-3.29
2023-01-10T08:08:38.349Z,-3.32
2023-01-10T08:11:05.738Z,-3.22
2023-01-10T08:13:35.698Z,-3.14
2023-01-10T08:16:06.794Z,-3.04
2023-01-10T08:18:34.577Z,-2.95
2023-01-10T08:21:02.115Z,-2.89
2023-01-10T08:23:29.745Z,-2.88
2023-01-10T08:25:58.640Z,-2.92
2023-01-10T08:28:27.012Z,-2.96
2023-01-10T08:30:55.934Z,-2.99
2023-01-10T08:33:24.047Z,-3.01
2023-01-10T08:35:51.151Z,-2.97
2023-01-10T08:38:18.047Z,-2.93
2023-01-10T08:40:44.915Z,-2.95
2023-01-10T08:43:12.612Z,-2.97
2023-01-10T08:45:39.855Z,-3.00
2023-01-10T08:48:09.336Z,-3.00
2023-01-10T08:50:36.878Z,-2.94
2023-01-10T08:53:04.275Z,-2.88
2023-01-10T08:55:31.702Z,-2.86
2023-01-10T08:58:02.418Z,-2.78
2023-01-10T09:00:29.636Z,-2.69
2023-01-10T09:02:56.755Z,-2.64
2023-01-10T09:05:28.242Z,-2.62
2023-01-10T09:08:00.459Z,-2.65
2023-01-10T09:10:28.576Z,-2.65
2023-01-10T09:12:57.180Z,-2.64
2023-01-10T09:15:26.092Z,-2.64
2023-01-10T09:17:59.172Z,-2.64
2023-01-10T09:20:26.652Z,-2.68
2023-01-10T09:22:53.833Z,-2.71
2023-01-10T09:25:21.042Z,-2.74
2023-01-10T09:27:48.185Z,-2.78
2023-01-10T09:30:15.618Z,-2.77
2023-01-10T09:32:51.384Z,-2.68
2023-01-10T09:35:18.621Z,-2.60
2023-01-10T09:37:48.996Z,-2.51
2023-01-10T09:40:17.175Z,-2.43
2023-01-10T09:43:04.327Z,-2.28
2023-01-10T09:46:09.022Z,-2.22
2023-01-10T09:49:00.939Z,-2.25
2023-01-10T09:51:35.575Z,-2.23
2023-01-10T09:54:13.063Z,-2.17
2023-01-10T09:56:40.996Z,-2.08
2023-01-10T09:59:24.150Z,-2.01
2023-01-10T10:01:54.669Z,-1.94
2023-01-10T10:04:30.969Z,-1.90
2023-01-10T10:06:58.122Z,-1.84
2023-01-10T10:09:33.235Z,-1.78
2023-01-10T10:12:18.621Z,-1.72
2023-01-10T10:15:01.830Z,-1.66
2023-01-10T10:17:56.718Z,-1.64
2023-01-10T10:20:28.949Z,-1.67
2023-01-10T10:23:15.512Z,-1.73
2023-01-10T10:26:11.910Z,-1.83
2023-01-10T10:29:00.396Z,-1.87
2023-01-10T10:31:30.390Z,-1.89
2023-01-10T10:34:04.615Z,-1.94
2023-01-10T10:36:57.541Z,-1.98
2023-01-10T10:39:36.785Z,-1.98
2023-01-10T10:42:04.113Z,-1.95
2023-01-10T10:44:37.535Z,-1.92
2023-01-10T10:47:19.585Z,-1.83
2023-01-10T10:50:04.930Z,-1.73
2023-01-10T10:52:35.120Z,-1.72
2023-01-10T10:55:03.851Z,-1.72
2023-01-10T10:57:32.467Z,-1.66
2023-01-10T10:59:59.668Z,-1.59
2023-01-10T11:02:32.427Z,-1.47
2023-01-10T11:05:04.018Z,-1.29
2023-01-10T11:10:36.422Z,-1.08
2023-01-10T11:13:12.626Z,-1.19
2023-01-10T11:15:43.823Z,-1.29
2023-01-10T11:18:14.915Z,-1.31
2023-01-10T11:20:58.689Z,-1.22
2023-01-10T11:24:02.876Z,-1.15
2023-01-10T11:26:39.317Z,-1.15
2023-01-10T11:29:06.230Z,-1.13
2023-01-10T11:31:33.755Z,-1.24
2023-01-10T11:34:01.274Z,-1.57
2023-01-10T11:36:28.150Z,-1.69
2023-01-10T11:39:02.383Z,-1.71
2023-01-10T11:41:34.409Z,-1.76
2023-01-10T11:44:30.375Z,-1.85
2023-01-10T11:47:07.141Z,-1.92
2023-01-10T11:49:42.463Z,-1.96
2023-01-10T11:52:19.027Z,-2.01
2023-01-10T11:54:45.945Z,-2.10
2023-01-10T11:57:17.301Z,-2.18
2023-01-10T11:59:58.260Z,-2.28
2023-01-10T12:02:26.800Z,-2.36
2023-01-10T12:04:58.730Z,-2.42
2023-01-10T12:07:25.942Z,-2.47
2023-01-10T12:10:01.094Z,-2.50
2023-01-10T12:12:35.336Z,-2.50
2023-01-10T12:15:25.816Z,-2.48
2023-01-10T12:17:53.924Z,-2.43
2023-01-10T12:20:20.914Z,-2.43
2023-01-10T12:22:54.639Z,-2.43
2023-01-10T12:25:39.086Z,-2.42
2023-01-10T12:28:38.348Z,-2.42
2023-01-10T12:31:06.618Z,-2.39
2023-01-10T12:33:39.503Z,-2.36
2023-01-10T12:36:23.482Z,-2.33
2023-01-10T12:39:04.032Z,-2.38
2023-01-10T12:42:11.672Z,-2.41
2023-01-10T12:44:48.972Z,-2.40
2023-01-10T12:47:30.798Z,-2.38
2023-01-10T12:50:03.185Z,-2.36
2023-01-10T12:52:30.230Z,-2.32
2023-01-10T12:54:59.954Z,-2.30
2023-01-10T12:57:36.624Z,-2.26
2023-01-10T13:00:10.327Z,-2.22
2023-01-10T13:02:44.081Z,-2.23
2023-01-10T13:05:22.545Z,-2.21
2023-01-10T13:07:54.614Z,-2.20
2023-01-10T13:10:22.656Z,-2.21
2023-01-10T13:13:28.833Z,-2.19
2023-01-10T13:16:13.064Z,-2.22
2023-01-10T13:19:00.148Z,-2.23
2023-01-10T13:21:27.122Z,-2.25
2023-01-10T13:23:57.922Z,-2.25
2023-01-10T13:26:25.007Z,-2.27
2023-01-10T13:28:59.669Z,-2.32
2023-01-10T13:31:33.425Z,-2.39
2023-01-10T13:34:13.358Z,-2.43
2023-01-10T13:36:42.595Z,-2.45
2023-01-10T13:39:36.945Z,-2.41
2023-01-10T13:42:22.495Z,-2.33
2023-01-10T13:45:02.405Z,-2.31
2023-01-10T13:47:39.508Z,-2.29
2023-01-10T13:50:25.697Z,-2.28
2023-01-10T13:52:53.088Z,-2.27
2023-01-10T13:55:53.954Z,-2.26
2023-01-10T13:58:42.920Z,-2.23
2023-01-10T14:01:42.514Z,-2.19
2023-01-10T14:04:27.566Z,-2.16
2023-01-10T14:07:14.342Z,-2.16
2023-01-10T14:09:50.826Z,-2.17
2023-01-10T14:12:21.062Z,-2.16
2023-01-10T14:15:17.510Z,-2.14
2023-01-10T14:17:44.869Z,-2.11
2023-01-10T14:20:12.032Z,-2.09
2023-01-10T14:22:48.559Z,-2.07
2023-01-10T14:25:23.670Z,-2.06
2023-01-10T14:27:51.860Z,-2.06
2023-01-10T14:30:35.635Z,-2.07
2023-01-10T14:33:15.828Z,-2.06
2023-01-10T14:35:46.355Z,-2.03
2023-01-10T14:38:41.156Z,-1.97
2023-01-10T14:41:19.318Z,-1.98
2023-01-10T14:43:59.308Z,-2.00
2023-01-10T14:46:41.403Z,-2.04
2023-01-10T14:49:34.063Z,-2.05
2023-01-10T14:52:22.795Z,-2.04
2023-01-10T14:55:04.954Z,-2.03
2023-01-10T14:57:32.196Z,-2.02
2023-01-10T15:00:17.910Z,-2.01
2023-01-10T15:02:51.061Z,-1.99
2023-01-10T15:08:25.293Z,-1.91
2023-01-10T15:10:54.817Z,-1.92
2023-01-10T15:13:24.232Z,-1.91
2023-01-10T15:15:51.665Z,-1.90
2023-01-10T15:18:38.828Z,-1.90
2023-01-10T15:21:06.113Z,-1.90
2023-01-10T15:23:37.118Z,-1.88
2023-01-10T15:26:10.834Z,-1.83
2023-01-10T15:28:42.527Z,-1.79
2023-01-10T15:31:17.553Z,-1.75
2023-01-10T15:33:56.610Z,-1.79
2023-01-10T15:36:29.375Z,-1.83
2023-01-10T15:38:56.456Z,-1.87
2023-01-10T15:41:23.683Z,-1.86
2023-01-10T15:43:58.114Z,-1.86
2023-01-10T15:46:27.041Z,-1.83
2023-01-10T15:49:05.487Z,-1.79
2023-01-10T15:51:39.231Z,-1.76
2023-01-10T15:54:07.683Z,-1.76
2023-01-10T15:56:40.436Z,-1.76
2023-01-10T15:59:52.553Z,-1.76
2023-01-10T16:02:27.286Z,-1.78
2023-01-10T16:07:42.616Z,-1.78
2023-01-10T16:10:25.174Z,-1.78
2023-01-10T16:13:27.183Z,-1.78
2023-01-10T16:15:55.238Z,-1.77
2023-01-10T16:18:22.391Z,-1.75
2023-01-10T16:20:50.287Z,-1.75
2023-01-10T16:23:19.497Z,-1.74
2023-01-10T16:25:52.537Z,-1.75
2023-01-10T16:28:20.058Z,-1.77
2023-01-10T16:30:48.183Z,-1.77
2023-01-10T16:33:22.838Z,-1.75
2023-01-10T16:35:50.137Z,-1.75
2023-01-10T16:38:17.878Z,-1.75
2023-01-10T16:40:51.739Z,-1.72
2023-01-10T16:43:19.075Z,-1.66
2023-01-10T16:48:31.409Z,-1.65
2023-01-10T16:51:35.310Z,-1.66
2023-01-10T16:54:02.206Z,-1.68
2023-01-10T16:56:29.305Z,-1.69
2023-01-10T16:58:56.337Z,-1.69
2023-01-10T17:01:25.458Z,-1.66
2023-01-10T17:03:55.152Z,-1.66
2023-01-10T17:06:29.763Z,-1.69
2023-01-10T17:08:56.907Z,-1.69
2023-01-10T17:11:35.463Z,-1.70
2023-01-10T17:14:05.734Z,-1.69
2023-01-10T17:16:35.543Z,-1.72
2023-01-10T17:19:08.602Z,-1.70
2023-01-10T17:21:35.535Z,-1.70
2023-01-10T17:24:09.655Z,-1.69
2023-01-10T17:26:42.718Z,-1.69
2023-01-10T17:29:18.589Z,-1.73
2023-01-10T17:31:45.602Z,-1.80
2023-01-10T17:37:00.888Z,-1.83
2023-01-10T17:39:30.998Z,-1.82
2023-01-10T17:42:01.058Z,-1.81
2023-01-10T17:44:28.162Z,-1.80
2023-01-10T17:46:58.019Z,-1.80
2023-01-10T17:49:25.072Z,-1.84
2023-01-10T17:51:53.816Z,-1.92
2023-01-10T17:54:21.535Z,-1.98
2023-01-10T17:56:48.491Z,-2.01
2023-01-10T17:59:15.468Z,-2.01
2023-01-10T18:01:42.673Z,-2.00
2023-01-10T18:04:10.152Z,-1.99
2023-01-10T18:06:37.546Z,-2.00
2023-01-10T18:09:04.799Z,-2.02
2023-01-10T18:11:33.155Z,-2.06
2023-01-10T18:14:00.068Z,-2.08
2023-01-10T18:16:27.442Z,-2.13
2023-01-10T18:18:54.520Z,-2.19
2023-01-10T18:21:24.608Z,-2.26
2023-01-10T18:23:56.878Z,-2.35
2023-01-10T18:26:24.391Z,-2.49
2023-01-10T18:28:53.025Z,-2.64
2023-01-10T18:31:21.450Z,-2.78
2023-01-10T18:33:48.612Z,-2.88
2023-01-10T18:36:20.779Z,-2.98
2023-01-10T18:38:48.206Z,-2.99
2023-01-10T18:41:15.880Z,-3.02
2023-01-10T18:43:42.854Z,-3.06
2023-01-10T18:46:25.505Z,-3.09
2023-01-10T18:49:02.693Z,-3.15
2023-01-10T18:51:40.493Z,-3.18
2023-01-10T18:54:07.714Z,-3.24
2023-01-10T18:56:47.592Z,-3.29
2023-01-10T18:59:19.266Z,-3.43
2023-01-10T19:01:53.793Z,-3.50
2023-01-10T19:04:38.901Z,-3.54
2023-01-10T19:07:06.021Z,-3.54
2023-01-10T19:09:33.328Z,-3.54
2023-01-10T19:12:09.475Z,-3.55
2023-01-10T19:14:36.440Z,-3.54
2023-01-10T19:17:06.537Z,-3.55
2023-01-10T19:19:33.449Z,-3.55
2023-01-10T19:22:03.542Z,-3.58
2023-01-10T19:24:32.968Z,-3.59
2023-01-10T19:27:00.322Z,-3.58
2023-01-10T19:29:33.846Z,-3.57
2023-01-10T19:32:03.807Z,-3.62
2023-01-10T19:34:30.866Z,-3.69
2023-01-10T19:37:00.870Z,-3.73
2023-01-10T19:39:27.967Z,-3.75
2023-01-10T19:41:54.991Z,-3.79
2023-01-10T19:44:24.372Z,-3.82
2023-01-10T19:46:57.044Z,-3.86
2023-01-10T19:49:26.778Z,-3.86
2023-01-10T19:52:00.546Z,-3.84
2023-01-10T19:54:37.830Z,-3.87
2023-01-10T19:57:22.376Z,-3.92
2023-01-10T20:00:00.224Z,-3.96
2023-01-10T20:02:33.770Z,-3.98
2023-01-10T20:05:04.441Z,-4.00
2023-01-10T20:07:50.935Z,-3.98
2023-01-10T20:10:18.263Z,-3.97
2023-01-10T20:12:45.354Z,-3.99
2023-01-10T20:15:15.431Z,-4.03
2023-01-10T20:18:00.100Z,-4.10
2023-01-10T20:20:27.339Z,-4.17
2023-01-10T20:22:54.978Z,-4.20
2023-01-10T20:26:11.566Z,-4.24
2023-01-10T20:28:39.357Z,-4.24
2023-01-10T20:31:08.033Z,-4.22
2023-01-10T20:33:44.672Z,-4.19
2023-01-10T20:36:31.184Z,-4.22
2023-01-10T20:38:58.794Z,-4.26
2023-01-10T20:41:31.162Z,-4.30
2023-01-10T20:44:07.931Z,-4.31
2023-01-10T20:46:38.946Z,-4.30
2023-01-10T20:49:07.030Z,-4.28
2023-01-10T20:51:37.712Z,-4.32
2023-01-10T20:54:08.888Z,-4.40
2023-01-10T20:56:38.708Z,-4.46
2023-01-10T20:59:06.408Z,-4.48
2023-01-10T21:01:35.363Z,-4.50
2023-01-10T21:04:07.117Z,-4.50
2023-01-10T21:06:35.049Z,-4.54
2023-01-10T21:09:09.807Z,-4.56
2023-01-10T21:11:52.147Z,-4.55
2023-01-10T21:14:26.409Z,-4.57
2023-01-10T21:16:57.459Z,-4.59
2023-01-10T21:19:27.364Z,-4.59
2023-01-10T21:21:56.917Z,-4.57
2023-01-10T21:24:25.413Z,-4.60
2023-01-10T21:26:52.401Z,-4.62
2023-01-10T21:29:19.357Z,-4.63
2023-01-10T21:31:46.432Z,-4.61
2023-01-10T21:34:13.471Z,-4.60
2023-01-10T21:36:40.307Z,-4.62
2023-01-10T21:39:07.279Z,-4.64
2023-01-10T21:41:52.860Z,-4.65
2023-01-10T21:44:20.404Z,-4.70
2023-01-10T21:46:49.276Z,-4.72
2023-01-10T21:49:16.358Z,-4.73
2023-01-10T21:51:44.568Z,-4.72
2023-01-10T21:54:11.554Z,-4.73
2023-01-10T21:56:38.580Z,-4.72
2023-01-10T21:59:05.475Z,-4.72
2023-01-10T22:01:32.600Z,-4.74
2023-01-10T22:03:59.478Z,-4.72
2023-01-10T22:06:26.381Z,-4.71
2023-01-10T22:08:53.375Z,-4.71
2023-01-10T22:11:20.306Z,-4.70
2023-01-10T22:13:47.972Z,-4.68
2023-01-10T22:16:15.026Z,-4.71
2023-01-10T22:18:43.199Z,-4.74
2023-01-10T22:21:12.720Z,-4.75
2023-01-10T22:23:43.194Z,-4.75
2023-01-10T22:26:14.500Z,-4.75
2023-01-10T22:28:41.575Z,-4.75
2023-01-10T22:31:08.624Z,-4.75
2023-01-10T22:33:36.703Z,-4.75
2023-01-10T22:36:08.731Z,-4.73
2023-01-10T22:38:35.818Z,-4.75
2023-01-10T22:41:26.673Z,-4.77
2023-01-10T22:43:53.996Z,-4.74
2023-01-10T22:46:21.087Z,-4.72
2023-01-10T22:48:48.109Z,-4.72
2023-01-10T22:51:15.678Z,-4.75
2023-01-10T22:53:42.928Z,-4.77
2023-01-10T22:56:10.814Z,-4.78
2023-01-10T22:58:37.963Z,-4.81
2023-01-10T23:01:08.388Z,-4.82
2023-01-10T23:03:35.560Z,-4.84
2023-01-10T23:06:02.860Z,-4.84
2023-01-10T23:08:29.880Z,-4.85
2023-01-10T23:10:56.790Z,-4.87
2023-01-10T23:13:23.914Z,-4.88
2023-01-10T23:15:58.497Z,-4.89
2023-01-10T23:18:25.913Z,-4.89
2023-01-10T23:20:52.895Z,-4.89
2023-01-10T23:23:19.931Z,-4.89
2023-01-10T23:26:01.464Z,-4.89
2023-01-10T23:28:29.492Z,-4.90
2023-01-10T23:30:56.573Z,-4.91
2023-01-10T23:33:23.474Z,-4.93
2023-01-10T23:35:50.381Z,-4.96
2023-01-10T23:38:17.380Z,-4.99
2023-01-10T23:40:44.812Z,-5.02
2023-01-10T23:43:11.669Z,-5.06
2023-01-10T23:45:38.693Z,-5.11
2023-01-10T23:48:06.252Z,-5.14
2023-01-10T23:50:33.249Z,-5.17
2023-01-10T23:53:00.292Z,-5.18
2023-01-10T23:55:27.662Z,-5.19
2023-01-10T23:57:54.536Z,-5.23
